Time;durP1;ratioP1;P1;durP2;ratioP2;P2;SDS_P1;SDS_P2;PMS_P1;PMS_P2;Temp;Humidity;BMP_temperature;BMP_pressure;BME280_temperature;BME280_humidity;BME280_pressure;Samples;Min_cycle;Max_cycle;Signal;HPM_P1;HPM_P2
2022/08/16 00:02:13;;;;;;;;;36.75;32.25;;;;;24.01;55.30;100319.34;5100137;27;45388;-66
2022/08/16 00:04:39;;;;;;;;;28.75;28.00;;;;;23.97;55.42;100324.25;5099749;27;45467;-66
2022/08/16 00:07:04;;;;;;;;;33.00;30.00;;;;;23.97;55.65;100331.53;5099505;27;45479;-66
2022/08/16 00:09:30;;;;;;;;;32.00;30.50;;;;;23.92;55.04;100323.78;5099922;27;45314;-66
2022/08/16 00:11:56;;;;;;;;;28.75;28.50;;;;;23.90;55.57;100323.06;5118761;27;45405;-66
2022/08/16 00:14:27;;;;;;;;;28.25;27.25;;;;;23.91;55.46;100327.53;5116078;27;45256;-66
2022/08/16 00:16:53;;;;;;;;;31.75;30.00;;;;;23.86;55.66;100324.41;5104050;27;46516;-66
2022/08/16 00:19:23;;;;;;;;;27.25;26.00;;;;;23.89;55.55;100336.84;5118784;27;45369;-66
2022/08/16 00:21:50;;;;;;;;;30.00;27.50;;;;;23.86;56.08;100324.41;5110076;27;45346;-66
2022/08/16 00:24:16;;;;;;;;;31.75;29.50;;;;;23.80;55.75;100325.78;5105214;27;45310;-66
2022/08/16 00:26:42;;;;;;;;;26.50;26.50;;;;;23.79;55.43;100328.66;5098450;27;45390;-66
2022/08/16 00:29:08;;;;;;;;;28.75;27.75;;;;;23.80;55.46;100331.22;5099683;27;45637;-66
2022/08/16 00:31:35;;;;;;;;;33.00;30.00;;;;;23.83;55.57;100341.88;5102937;27;45383;-66
2022/08/16 00:34:00;;;;;;;;;31.50;29.75;;;;;23.82;55.91;100347.47;5103028;27;45226;-66
2022/08/16 00:36:25;;;;;;;;;30.00;28.25;;;;;23.80;55.78;100347.59;5102809;27;45505;-66
2022/08/16 00:38:51;;;;;;;;;26.00;26.00;;;;;23.79;55.82;100345.00;5103036;27;45149;-66
2022/08/16 00:41:17;;;;;;;;;29.00;28.75;;;;;23.77;55.73;100342.44;5102534;27;45413;-66
2022/08/16 00:43:42;;;;;;;;;27.25;23.75;;;;;23.77;55.80;100341.56;5084476;27;45933;-66
2022/08/16 00:46:26;;;;;;;;;26.50;25.00;;;;;23.74;55.69;100337.28;5117653;27;46070;-66
2022/08/16 00:48:52;;;;;;;;;28.50;28.25;;;;;23.77;55.68;100341.56;5119124;27;45394;-66
2022/08/16 00:51:21;;;;;;;;;29.00;29.00;;;;;23.76;55.78;100340.72;5103014;27;45451;-66
2022/08/16 00:53:48;;;;;;;;;26.25;23.25;;;;;23.77;55.57;100333.41;5102766;27;45305;-66
2022/08/16 00:56:18;;;;;;;;;35.00;29.75;;;;;23.71;55.81;100321.22;5102755;27;45480;-66
2022/08/16 00:58:46;;;;;;;;;32.00;28.75;;;;;23.76;56.06;100324.38;5084291;27;45481;-66
2022/08/16 01:01:14;;;;;;;;;28.25;26.50;;;;;23.75;55.50;100319.91;5102886;27;45336;-66
2022/08/16 01:03:43;;;;;;;;;24.25;22.50;;;;;23.74;55.83;100323.66;5102542;27;45408;-66
2022/08/16 01:06:10;;;;;;;;;33.75;30.25;;;;;23.73;55.82;100318.34;5101956;27;46351;-66
2022/08/16 01:08:37;;;;;;;;;26.25;26.25;;;;;23.71;55.68;100312.19;5084041;27;45418;-66
2022/08/16 01:11:04;;;;;;;;;27.00;27.00;;;;;23.66;55.64;100308.03;5115271;27;45356;-66
2022/08/16 01:13:33;;;;;;;;;29.75;29.50;;;;;23.68;56.05;100308.72;5122993;27;45495;-66
2022/08/16 01:16:04;;;;;;;;;28.75;28.75;;;;;23.67;55.86;100315.22;5105276;27;46121;-66
2022/08/16 01:18:39;;;;;;;;;25.25;24.50;;;;;23.64;55.63;100307.31;5109460;27;45444;-66
2022/08/16 01:21:22;;;;;;;;;23.50;23.50;;;;;23.68;55.69;100314.19;5122861;27;45375;-66
2022/08/16 01:24:05;;;;;;;;;23.75;22.75;;;;;23.68;56.02;100311.47;5123027;27;45409;-66
2022/08/16 01:26:33;;;;;;;;;30.50;29.50;;;;;23.71;56.12;100320.38;5122700;27;46479;-66
2022/08/16 01:29:02;;;;;;;;;29.25;28.50;;;;;23.68;56.03;100311.47;5122930;27;45467;-66
2022/08/16 01:31:28;;;;;;;;;28.50;28.00;;;;;23.68;55.85;100314.19;5104580;27;45282;-66
2022/08/16 01:33:53;;;;;;;;;31.75;29.00;;;;;23.65;55.81;100309.03;5122530;27;45180;-66
2022/08/16 01:36:19;;;;;;;;;28.75;28.75;;;;;23.62;56.00;100313.91;5122508;27;46282;-66
2022/08/16 01:38:47;;;;;;;;;26.75;26.25;;;;;23.66;56.10;100313.47;5122858;27;45233;-66
2022/08/16 01:41:17;;;;;;;;;28.00;26.50;;;;;23.65;55.86;100311.75;5122810;27;45380;-66
2022/08/16 01:43:44;;;;;;;;;28.50;28.00;;;;;23.61;55.78;100320.38;5122656;27;45467;-66
2022/08/16 01:46:36;;;;;;;;;28.00;26.00;;;;;23.63;55.93;100312.91;5121581;27;46679;-66
2022/08/16 01:49:17;;;;;;;;;30.00;26.75;;;;;23.61;55.79;100307.59;5103842;27;45184;-66
2022/08/16 01:51:47;;;;;;;;;29.75;28.50;;;;;23.60;56.09;100307.75;5102018;27;45406;-66
2022/08/16 01:54:12;;;;;;;;;27.25;27.25;;;;;23.58;55.72;100313.34;5109260;27;45569;-66
2022/08/16 01:56:38;;;;;;;;;30.25;30.00;;;;;23.57;55.89;100311.63;5122261;27;46222;-66
2022/08/16 01:59:10;;;;;;;;;27.50;26.75;;;;;23.57;55.94;100310.75;5122422;27;45513;-66
2022/08/16 02:01:36;;;;;;;;;31.75;29.75;;;;;23.55;55.70;100310.03;5122452;27;45462;-66
2022/08/16 02:04:02;;;;;;;;;31.25;29.50;;;;;23.60;55.97;100316.78;5121671;27;45259;-66
2022/08/16 02:06:28;;;;;;;;;29.00;26.25;;;;;23.60;56.37;100322.22;5121661;27;46120;-66
2022/08/16 02:08:54;;;;;;;;;26.75;26.75;;;;;23.54;56.05;100311.03;5103732;27;45341;-66
2022/08/16 02:11:21;;;;;;;;;31.50;29.50;;;;;23.57;56.09;100321.66;5107112;27;45244;-66
2022/08/16 02:13:46;;;;;;;;;32.00;30.75;;;;;23.51;56.49;100316.81;5101636;27;45381;-66
2022/08/16 02:16:12;;;;;;;;;34.50;30.50;;;;;23.54;56.09;100322.81;5104788;27;46257;-66
2022/08/16 02:18:39;;;;;;;;;27.50;26.50;;;;;23.50;56.04;100315.91;5101373;27;45326;-66
2022/08/16 02:21:05;;;;;;;;;28.00;26.00;;;;;23.48;56.35;100307.88;5101097;27;45289;-66
2022/08/16 02:23:33;;;;;;;;;28.75;26.00;;;;;23.50;56.60;100313.19;5101440;27;45560;-66
2022/08/16 02:25:58;;;;;;;;;25.75;24.25;;;;;23.51;56.31;100312.19;5101094;27;46192;-66
2022/08/16 02:28:25;;;;;;;;;26.75;26.25;;;;;23.53;56.35;100312.91;5101343;27;45253;-66
2022/08/16 02:30:51;;;;;;;;;28.25;27.00;;;;;23.53;56.05;100304.75;5083126;27;45322;-66
2022/08/16 02:33:16;;;;;;;;;30.25;28.75;;;;;23.49;56.08;100301.44;5101304;27;45556;-66
2022/08/16 02:35:42;;;;;;;;;28.50;26.75;;;;;23.49;56.32;100284.25;5100656;27;45397;-66
2022/08/16 02:38:07;;;;;;;;;28.25;27.25;;;;;23.52;56.13;100281.22;5101082;27;45314;-66
2022/08/16 02:40:33;;;;;;;;;33.25;29.25;;;;;23.48;56.00;100272.47;5101307;27;45373;-66
2022/08/16 02:42:59;;;;;;;;;26.75;26.25;;;;;23.50;56.50;100264.16;5082758;27;45339;-66
2022/08/16 02:45:26;;;;;;;;;29.50;28.00;;;;;23.49;56.74;100263.31;5110470;27;46376;-66
2022/08/16 02:47:52;;;;;;;;;25.75;25.00;;;;;23.51;56.78;100249.56;5115276;27;45238;-66
2022/08/16 02:50:17;;;;;;;;;30.75;29.75;;;;;23.53;56.39;100269.31;5105590;27;45326;-66
2022/08/16 02:52:43;;;;;;;;;27.25;25.75;;;;;23.55;56.19;100266.47;5100294;27;45418;-66
2022/08/16 02:55:09;;;;;;;;;27.00;27.00;;;;;23.56;56.75;100258.16;5106636;27;45296;-66
2022/08/16 02:57:34;;;;;;;;;26.25;25.00;;;;;23.57;57.04;100259.88;5113100;27;45331;-66
2022/08/16 03:00:04;;;;;;;;;29.00;27.50;;;;;23.57;57.05;100259.88;5100871;27;45357;-66
2022/08/16 03:02:29;;;;;;;;;27.50;27.50;;;;;23.57;56.54;100246.25;5101043;27;45346;-66
2022/08/16 03:04:55;;;;;;;;;35.75;32.25;;;;;23.55;56.55;100233.78;5100359;27;46449;-66
2022/08/16 03:07:20;;;;;;;;;34.25;31.00;;;;;23.52;56.14;100234.91;5100324;27;45374;-66
2022/08/16 03:09:45;;;;;;;;;29.25;27.75;;;;;23.48;56.61;100236.22;5102149;27;46074;-66
2022/08/16 03:12:11;;;;;;;;;28.25;28.25;;;;;23.51;57.00;100241.38;5121347;27;45380;-66
2022/08/16 03:14:36;;;;;;;;;27.50;26.75;;;;;23.55;57.20;100250.97;5116722;27;45408;-66
2022/08/16 03:17:02;;;;;;;;;28.50;26.50;;;;;23.53;56.86;100246.69;5100537;27;45301;-66
2022/08/16 03:19:30;;;;;;;;;29.50;29.50;;;;;23.55;56.51;100241.94;5105010;27;45503;-66
2022/08/16 03:21:56;;;;;;;;;33.50;29.50;;;;;23.55;56.58;100250.13;5100623;27;45239;-66
2022/08/16 03:24:21;;;;;;;;;29.50;26.00;;;;;23.55;56.42;100252.84;5100255;27;45468;-66
2022/08/16 03:26:46;;;;;;;;;31.50;28.75;;;;;23.60;56.49;100265.00;5100447;27;45385;-66
2022/08/16 03:29:12;;;;;;;;;25.75;24.75;;;;;23.61;56.92;100271.34;5100424;27;45476;-66
2022/08/16 03:31:37;;;;;;;;;28.75;26.50;;;;;23.54;56.58;100249.25;5100474;27;45424;-66
2022/08/16 03:34:02;;;;;;;;;28.75;27.75;;;;;23.61;56.59;100260.44;5100003;27;45993;-66
2022/08/16 03:36:28;;;;;;;;;21.75;21.75;;;;;23.61;56.35;100261.28;5100342;27;45405;-66
2022/08/16 03:38:53;;;;;;;;;32.25;30.00;;;;;23.59;56.60;100263.31;5100302;27;45307;-66
2022/08/16 03:41:18;;;;;;;;;29.75;28.75;;;;;23.63;56.57;100264.72;5100494;27;45465;-66
2022/08/16 03:43:44;;;;;;;;;28.75;28.75;;;;;23.55;56.61;100259.13;5100026;27;45437;-66
2022/08/16 03:46:09;;;;;;;;;31.75;29.50;;;;;23.65;56.55;100272.75;5109170;27;45396;-66
2022/08/16 03:48:37;;;;;;;;;30.25;29.50;;;;;23.65;56.84;100281.78;5100082;27;45392;-66
2022/08/16 03:51:06;;;;;;;;;31.00;28.75;;;;;23.64;56.79;100299.16;5100028;27;45350;-66
2022/08/16 03:53:32;;;;;;;;;31.75;28.50;;;;;23.54;56.96;100295.56;5099947;27;45592;-66
2022/08/16 03:55:57;;;;;;;;;30.00;27.75;;;;;23.55;56.83;100302.72;5100118;27;45635;-66
2022/08/16 03:58:23;;;;;;;;;25.00;22.75;;;;;23.48;56.67;100293.41;5100161;27;45325;-66
2022/08/16 04:00:48;;;;;;;;;28.25;27.50;;;;;23.46;56.90;100290.84;5081847;27;45338;-66
2022/08/16 04:03:14;;;;;;;;;26.50;26.50;;;;;23.50;56.86;100302.31;5099793;27;45252;-67
2022/08/16 04:05:46;;;;;;;;;29.50;29.25;;;;;23.48;57.04;100301.59;5101662;27;45771;-67
2022/08/16 04:08:12;;;;;;;;;27.25;26.25;;;;;23.43;56.85;100293.00;5103444;27;45379;-66
2022/08/16 04:10:38;;;;;;;;;27.50;27.50;;;;;23.44;57.06;100292.00;5094196;27;45853;-66
2022/08/16 04:13:03;;;;;;;;;24.50;24.50;;;;;23.49;56.88;100298.72;5123862;27;46108;-66
2022/08/16 04:15:29;;;;;;;;;27.00;25.25;;;;;23.50;56.70;100296.84;5119248;27;45387;-66
2022/08/16 04:17:56;;;;;;;;;26.25;25.75;;;;;23.47;56.74;100298.03;5123200;27;45346;-66
2022/08/16 04:20:22;;;;;;;;;25.50;25.50;;;;;23.46;56.95;100290.84;5114177;27;45420;-66
2022/08/16 04:22:48;;;;;;;;;25.50;23.50;;;;;23.44;56.84;100290.13;5102904;27;46850;-66
2022/08/16 04:25:13;;;;;;;;;28.25;26.00;;;;;23.44;57.04;100298.31;5103470;27;45207;-66
2022/08/16 04:27:39;;;;;;;;;27.25;27.00;;;;;23.44;57.19;100294.72;5103139;27;45263;-66
2022/08/16 04:30:09;;;;;;;;;28.25;26.75;;;;;23.34;57.23;100289.28;5103381;27;45367;-66
2022/08/16 04:32:34;;;;;;;;;25.25;24.75;;;;;23.33;57.02;100290.25;5102892;27;45982;-66
2022/08/16 04:35:00;;;;;;;;;27.50;26.00;;;;;23.34;57.42;100300.16;5103111;27;45295;-66
2022/08/16 04:37:25;;;;;;;;;28.00;24.50;;;;;23.29;57.11;100294.28;5102879;27;45362;-66
2022/08/16 04:39:50;;;;;;;;;29.75;29.00;;;;;23.26;57.37;100300.88;5103167;27;46816;-66
2022/08/16 04:42:17;;;;;;;;;23.25;23.25;;;;;23.25;57.50;100301.88;5102981;27;45399;-66
2022/08/16 04:44:44;;;;;;;;;30.25;29.50;;;;;23.16;57.58;100280.94;5102400;27;45537;-67
2022/08/16 04:47:09;;;;;;;;;29.25;28.25;;;;;23.22;57.55;100294.00;5102860;27;45177;-67
2022/08/16 04:49:34;;;;;;;;;27.00;27.00;;;;;23.19;57.63;100294.28;5115523;27;45365;-66
2022/08/16 04:52:00;;;;;;;;;24.50;24.25;;;;;23.21;57.64;100297.72;5121084;27;46105;-65
2022/08/16 04:54:26;;;;;;;;;27.25;24.75;;;;;23.22;57.93;100309.47;5114562;27;45275;-65
2022/08/16 04:56:51;;;;;;;;;26.25;24.50;;;;;23.23;57.76;100303.88;5102936;27;45137;-65
2022/08/16 04:59:17;;;;;;;;;23.75;22.75;;;;;23.16;58.15;100300.00;5110381;27;45240;-65
2022/08/16 05:01:42;;;;;;;;;25.75;25.00;;;;;23.17;57.78;100304.47;5107269;27;46119;-65
2022/08/16 05:04:07;;;;;;;;;23.50;23.50;;;;;23.12;57.92;100291.28;5102469;27;45460;-65
2022/08/16 05:06:33;;;;;;;;;26.00;26.00;;;;;23.18;57.92;100308.03;5102308;27;45385;-65
2022/08/16 05:08:58;;;;;;;;;23.50;22.75;;;;;23.15;57.59;100306.44;5089559;27;46014;-65
2022/08/16 05:11:26;;;;;;;;;26.50;25.50;;;;;23.10;57.90;100303.28;5102710;27;45475;-65
2022/08/16 05:13:51;;;;;;;;;27.25;26.75;;;;;23.15;58.24;100317.34;5102496;27;45360;-65
2022/08/16 05:16:23;;;;;;;;;25.00;23.75;;;;;23.17;57.81;100317.19;5120528;27;45149;-65
2022/08/16 05:18:50;;;;;;;;;22.75;22.75;;;;;23.11;57.86;100307.75;5108351;27;45262;-65
2022/08/16 05:21:15;;;;;;;;;27.00;25.00;;;;;23.16;57.88;100321.78;5119755;27;45395;-65
2022/08/16 05:23:41;;;;;;;;;23.75;21.50;;;;;23.17;57.86;100339.84;5102514;27;45428;-65
2022/08/16 05:26:07;;;;;;;;;22.75;21.00;;;;;23.18;58.12;100338.84;5102338;27;45563;-65
2022/08/16 05:28:32;;;;;;;;;20.50;20.50;;;;;23.19;58.02;100343.28;5083854;27;45372;-65
2022/08/16 05:30:57;;;;;;;;;23.75;23.00;;;;;23.19;58.06;100340.56;5101975;27;45272;-65
2022/08/16 05:33:24;;;;;;;;;24.00;23.25;;;;;23.17;58.24;100338.97;5102427;27;45340;-65
2022/08/16 05:35:50;;;;;;;;;24.50;24.00;;;;;23.16;58.22;100335.41;5101822;27;45338;-67
2022/08/16 05:38:17;;;;;;;;;28.50;24.75;;;;;23.22;58.15;100347.56;5102278;27;45243;-66
2022/08/16 05:40:42;;;;;;;;;23.50;22.50;;;;;23.20;58.19;100346.88;5100910;27;46362;-66
2022/08/16 05:43:07;;;;;;;;;20.75;20.00;;;;;23.16;58.02;100335.41;5102078;27;45437;-66
2022/08/16 05:45:33;;;;;;;;;25.00;22.00;;;;;23.15;58.20;100330.94;5102022;27;45516;-66
2022/08/16 05:47:58;;;;;;;;;19.25;18.50;;;;;23.16;57.90;100338.13;5102215;27;45518;-66
2022/08/16 05:50:24;;;;;;;;;19.25;19.25;;;;;23.17;58.03;100342.59;5118170;27;45450;-66
2022/08/16 05:52:49;;;;;;;;;19.50;19.50;;;;;23.18;58.09;100352.44;5101923;27;45286;-66
2022/08/16 05:55:15;;;;;;;;;18.50;18.50;;;;;23.10;58.15;100335.97;5083519;27;45268;-66
2022/08/16 05:57:41;;;;;;;;;23.75;18.00;;;;;23.19;58.00;100348.75;5104234;27;45286;-66
2022/08/16 06:00:10;;;;;;;;;21.50;20.50;;;;;23.20;57.79;100349.59;5101656;27;46095;-66
2022/08/16 06:02:36;;;;;;;;;20.00;20.00;;;;;23.19;58.17;100351.47;5101716;27;45354;-66
2022/08/16 06:05:04;;;;;;;;;21.50;19.50;;;;;23.21;58.08;100357.63;5101549;27;45258;-66
2022/08/16 06:07:30;;;;;;;;;18.00;16.25;;;;;23.18;58.27;100357.03;5100448;27;45450;-66
2022/08/16 06:09:57;;;;;;;;;21.00;20.50;;;;;23.21;58.03;100360.34;5104459;27;46256;-66
2022/08/16 06:12:23;;;;;;;;;21.25;21.00;;;;;23.23;57.90;100369.22;5122238;27;45412;-66
2022/08/16 06:14:49;;;;;;;;;20.75;18.50;;;;;23.25;58.11;100364.50;5114003;27;45649;-66
2022/08/16 06:17:15;;;;;;;;;20.75;19.50;;;;;23.29;57.75;100384.16;5101356;27;45282;-66
2022/08/16 06:19:43;;;;;;;;;21.75;19.25;;;;;23.24;58.15;100364.66;5114536;27;47022;-66
2022/08/16 06:22:09;;;;;;;;;21.75;19.50;;;;;23.25;58.04;100380.81;5111323;27;45519;-66
2022/08/16 06:24:35;;;;;;;;;20.75;20.75;;;;;23.25;58.03;100378.09;5101206;27;45400;-66
2022/08/16 06:27:00;;;;;;;;;21.75;20.75;;;;;23.24;58.12;100372.81;5100748;27;45311;-66
2022/08/16 06:29:26;;;;;;;;;19.50;19.50;;;;;23.19;57.92;100364.19;5100563;27;45442;-66
2022/08/16 06:31:51;;;;;;;;;22.00;19.75;;;;;23.24;57.55;100367.38;5101256;27;45320;-66
2022/08/16 06:34:16;;;;;;;;;20.75;20.75;;;;;23.24;57.98;100367.38;5100935;27;45419;-66
2022/08/16 06:36:42;;;;;;;;;19.75;19.25;;;;;23.20;57.91;100357.75;5103979;27;45314;-66
2022/08/16 06:39:07;;;;;;;;;19.25;18.25;;;;;23.27;57.98;100367.06;5100754;27;46025;-66
2022/08/16 06:41:33;;;;;;;;;26.50;22.00;;;;;23.20;57.93;100350.44;5101219;27;45255;-66
2022/08/16 06:43:58;;;;;;;;;19.00;19.00;;;;;23.29;58.07;100351.47;5105190;27;45398;-66
2022/08/16 06:46:33;;;;;;;;;20.50;20.50;;;;;23.30;58.07;100362.22;5112168;27;45530;-66
2022/08/16 06:49:06;;;;;;;;;25.00;22.50;;;;;23.32;58.12;100364.78;5100578;27;45258;-66
2022/08/16 06:51:32;;;;;;;;;23.75;23.75;;;;;23.26;58.08;100371.66;5100816;27;45327;-66
2022/08/16 06:53:57;;;;;;;;;21.25;19.50;;;;;23.31;57.89;100373.97;5101006;27;45268;-66
2022/08/16 06:56:23;;;;;;;;;24.50;23.75;;;;;23.29;58.28;100368.66;5105465;27;45434;-66
2022/08/16 06:58:48;;;;;;;;;21.75;20.50;;;;;23.31;58.13;100368.53;5119731;27;45322;-66
2022/08/16 07:01:14;;;;;;;;;19.00;19.00;;;;;23.33;57.89;100382.84;5109535;27;45173;-66
2022/08/16 07:03:39;;;;;;;;;20.75;20.50;;;;;23.33;58.13;100371.97;5100539;27;45318;-66
2022/08/16 07:06:05;;;;;;;;;21.25;20.00;;;;;23.31;58.12;100371.25;5100207;27;51245;-66
2022/08/16 07:08:31;;;;;;;;;19.75;19.75;;;;;23.27;58.15;100373.41;5100250;27;46622;-66
2022/08/16 07:10:57;;;;;;;;;17.25;16.75;;;;;23.28;57.94;100368.81;5112227;27;45334;-66
2022/08/16 07:13:23;;;;;;;;;17.75;16.75;;;;;23.33;57.80;100374.69;5121131;27;45393;-66
2022/08/16 07:15:48;;;;;;;;;18.75;18.00;;;;;23.29;58.11;100368.66;5107417;27;45543;-66
2022/08/16 07:18:14;;;;;;;;;22.75;19.25;;;;;23.34;57.78;100375.53;5102425;27;45958;-66
2022/08/16 07:20:40;;;;;;;;;18.75;18.75;;;;;23.39;57.86;100381.41;5119846;27;45553;-66
2022/08/16 07:23:06;;;;;;;;;18.25;18.00;;;;;23.39;57.71;100378.69;5102712;27;45369;-66
2022/08/16 07:25:32;;;;;;;;;22.25;19.25;;;;;23.35;58.01;100366.38;5100407;27;45257;-66
2022/08/16 07:27:58;;;;;;;;;21.00;17.75;;;;;23.37;58.19;100378.88;5100292;27;45400;-66
2022/08/16 07:30:24;;;;;;;;;19.50;18.50;;;;;23.41;57.67;100387.63;5100551;27;45465;-66
2022/08/16 07:32:49;;;;;;;;;17.75;17.75;;;;;23.42;57.75;100387.47;5100583;27;45167;-66
2022/08/16 07:35:16;;;;;;;;;22.50;21.75;;;;;23.45;57.83;100381.72;5100117;27;45445;-66
2022/08/16 07:37:41;;;;;;;;;20.25;18.00;;;;;23.46;57.44;100385.31;5099968;27;45310;-66
2022/08/16 07:40:07;;;;;;;;;17.25;17.25;;;;;23.30;57.55;100366.78;5102815;27;45421;-66
2022/08/16 07:42:33;;;;;;;;;18.00;18.00;;;;;23.40;57.67;100385.88;5103982;27;45511;-66
2022/08/16 07:44:58;;;;;;;;;16.50;16.50;;;;;23.54;57.30;100399.09;5085722;27;45503;-66
2022/08/16 07:47:24;;;;;;;;;21.00;20.00;;;;;23.57;57.38;100406.09;5115563;27;46561;-66
2022/08/16 07:49:49;;;;;;;;;19.75;19.75;;;;;23.49;57.53;100383.16;5103562;27;45385;-66
2022/08/16 07:52:14;;;;;;;;;20.75;19.25;;;;;23.59;57.72;100404.97;5103818;27;45320;-66
2022/08/16 07:54:40;;;;;;;;;18.75;15.25;;;;;23.58;57.59;100396.94;5103775;27;45334;-66
2022/08/16 07:57:05;;;;;;;;;19.50;18.50;;;;;23.59;57.48;100395.91;5104127;27;46039;-66
2022/08/16 07:59:30;;;;;;;;;14.00;14.00;;;;;23.61;57.37;100396.66;5124321;27;45334;-66
2022/08/16 08:01:56;;;;;;;;;20.50;19.00;;;;;23.61;57.90;100397.50;5106645;27;45294;-66
2022/08/16 08:04:21;;;;;;;;;18.75;17.75;;;;;23.58;57.55;100391.50;5103353;27;45449;-66
2022/08/16 08:06:47;;;;;;;;;15.75;15.75;;;;;23.66;57.45;100399.81;5103194;27;46357;-66
2022/08/16 08:09:12;;;;;;;;;14.75;13.75;;;;;23.58;57.83;100380.59;5103522;27;45311;-66
2022/08/16 08:11:39;;;;;;;;;16.50;15.50;;;;;23.66;57.72;100391.63;5121111;27;45283;-66
2022/08/16 08:14:04;;;;;;;;;17.50;17.00;;;;;23.68;57.82;100393.19;5122138;27;45237;-66
2022/08/16 08:16:31;;;;;;;;;21.25;17.50;;;;;23.69;57.39;100396.81;5107652;27;45386;-66
2022/08/16 08:18:58;;;;;;;;;18.50;17.25;;;;;23.62;57.69;100377.44;5103081;27;45605;-66
2022/08/16 08:21:24;;;;;;;;;26.00;22.50;;;;;23.66;57.32;100384.31;5103355;27;45299;-67
2022/08/16 08:23:50;;;;;;;;;19.50;19.50;;;;;23.70;57.73;100384.03;5103497;27;45481;-66
2022/08/16 08:26:17;;;;;;;;;19.00;16.25;;;;;23.73;57.39;100392.78;5104002;27;47250;-66
2022/08/16 08:28:43;;;;;;;;;16.00;15.00;;;;;23.72;56.68;100388.31;5112030;27;45481;-66
2022/08/16 08:31:08;;;;;;;;;15.25;15.25;;;;;23.79;56.83;100399.50;5103088;27;45300;-66
2022/08/16 08:33:34;;;;;;;;;20.50;17.00;;;;;23.83;56.75;100399.13;5103035;27;46092;-66
2022/08/16 08:36:02;;;;;;;;;18.25;17.25;;;;;23.80;57.30;100401.25;5084310;27;47013;-66
2022/08/16 08:38:31;;;;;;;;;18.25;16.25;;;;;23.85;57.06;100404.44;5102931;27;45511;-66
2022/08/16 08:40:57;;;;;;;;;18.00;16.00;;;;;23.85;57.17;100408.00;5103131;27;45259;-66
2022/08/16 08:43:22;;;;;;;;;17.50;17.25;;;;;23.87;57.09;100405.13;5103106;27;45352;-66
2022/08/16 08:45:48;;;;;;;;;17.75;16.50;;;;;23.91;57.29;100411.19;5102677;27;45244;-66
2022/08/16 08:48:14;;;;;;;;;20.00;20.00;;;;;23.95;57.12;100416.19;5103031;27;45228;-66
2022/08/16 08:50:41;;;;;;;;;16.25;16.25;;;;;23.99;56.57;100411.28;5101860;27;45169;-66
2022/08/16 08:53:07;;;;;;;;;20.75;20.25;;;;;24.02;57.20;100408.28;5102892;27;45477;-66
2022/08/16 08:55:33;;;;;;;;;16.75;16.75;;;;;24.04;56.67;100415.31;5102428;27;45432;-66
2022/08/16 08:57:58;;;;;;;;;18.00;18.00;;;;;24.07;56.55;100405.13;5117848;27;45899;-66
2022/08/16 09:00:26;;;;;;;;;16.75;15.00;;;;;24.08;56.34;100410.44;5116662;27;45327;-66
2022/08/16 09:02:51;;;;;;;;;15.00;14.50;;;;;24.10;56.18;100402.13;5102737;27;45520;-66
2022/08/16 09:05:18;;;;;;;;;16.75;15.50;;;;;24.09;56.28;100400.38;5102324;27;45247;-66
2022/08/16 09:07:44;;;;;;;;;15.75;14.50;;;;;24.14;56.09;100411.72;5102226;27;45534;-66
2022/08/16 09:10:09;;;;;;;;;15.75;15.00;;;;;24.16;55.69;100415.19;5107698;27;45351;-66
2022/08/16 09:12:35;;;;;;;;;19.00;15.75;;;;;24.20;55.98;100417.44;5123364;27;45291;-66
2022/08/16 09:15:01;;;;;;;;;16.50;16.50;;;;;24.21;55.91;100421.06;5113071;27;45249;-66
2022/08/16 09:17:27;;;;;;;;;15.50;15.50;;;;;24.22;55.83;100420.91;5102242;27;45421;-66
2022/08/16 09:19:54;;;;;;;;;15.25;14.25;;;;;24.25;55.94;100419.72;5102201;27;45247;-66
2022/08/16 09:22:25;;;;;;;;;17.00;13.75;;;;;24.30;55.61;100431.06;5102227;27;45269;-66
2022/08/16 09:24:51;;;;;;;;;18.00;17.00;;;;;24.33;55.81;100425.31;5102081;27;46753;-66
2022/08/16 09:27:16;;;;;;;;;15.00;14.00;;;;;24.31;55.94;100431.94;5111012;27;45363;-66
2022/08/16 09:29:42;;;;;;;;;11.75;11.75;;;;;24.34;55.48;100437.97;5104369;27;45366;-66
2022/08/16 09:32:09;;;;;;;;;17.25;15.25;;;;;24.34;55.72;100440.69;5110685;27;45583;-66
2022/08/16 09:34:34;;;;;;;;;14.50;14.50;;;;;24.37;56.13;100439.53;5101792;27;46604;-66
2022/08/16 09:36:59;;;;;;;;;14.50;14.50;;;;;24.42;55.80;100440.81;5102036;27;45365;-66
2022/08/16 09:39:25;;;;;;;;;18.00;16.00;;;;;24.42;55.60;100435.38;5102037;27;45657;-66
2022/08/16 09:41:55;;;;;;;;;14.25;12.75;;;;;24.50;55.87;100436.50;5102020;27;45407;-66
2022/08/16 09:44:25;;;;;;;;;15.00;14.50;;;;;24.52;55.16;100429.84;5101837;27;47160;-66
2022/08/16 09:46:52;;;;;;;;;14.25;13.75;;;;;24.58;55.62;100436.66;5101956;27;45520;-66
2022/08/16 09:49:18;;;;;;;;;18.25;15.75;;;;;24.61;55.34;100433.63;5101957;27;45302;-66
2022/08/16 09:51:43;;;;;;;;;14.00;13.00;;;;;24.65;55.21;100435.03;5101936;27;45496;-66
2022/08/16 09:54:09;;;;;;;;;15.00;15.00;;;;;24.67;54.97;100426.69;5083492;27;47397;-66
2022/08/16 09:56:36;;;;;;;;;15.25;14.25;;;;;24.64;54.76;100419.69;5107232;27;45287;-66
2022/08/16 09:59:04;;;;;;;;;14.25;14.25;;;;;24.57;54.60;100404.91;5101993;27;45365;-66
2022/08/16 10:01:30;;;;;;;;;14.75;13.75;;;;;24.69;54.67;100433.75;5101688;27;45331;-66
2022/08/16 10:03:56;;;;;;;;;15.00;15.00;;;;;24.72;55.21;100438.88;5101600;27;46091;-66
2022/08/16 10:06:22;;;;;;;;;17.50;15.25;;;;;24.74;55.00;100433.28;5101416;27;45274;-66
2022/08/16 10:08:48;;;;;;;;;13.75;12.50;;;;;24.79;54.39;100436.41;5101767;27;45271;-66
2022/08/16 10:13:58;;;;;;;;;17.00;16.00;;;;;24.87;54.86;100430.22;5121143;27;45475;-66
2022/08/16 10:16:24;;;;;;;;;10.50;10.50;;;;;24.91;54.56;100437.13;5101177;27;45467;-66
2022/08/16 10:18:49;;;;;;;;;16.50;14.50;;;;;24.93;54.97;100430.47;5101433;27;45241;-66
2022/08/16 10:21:15;;;;;;;;;15.75;14.00;;;;;24.95;54.83;100433.06;5101446;27;46255;-66
2022/08/16 10:23:42;;;;;;;;;16.75;14.50;;;;;25.00;54.33;100433.47;5100877;27;46203;-66
2022/08/16 10:26:07;;;;;;;;;16.50;15.25;;;;;25.02;54.21;100436.91;5102293;27;45318;-66
2022/08/16 10:28:33;;;;;;;;;10.50;9.00;;;;;25.04;54.85;100432.16;5112256;27;45550;-66
2022/08/16 10:30:59;;;;;;;;;14.25;13.50;;;;;25.08;54.75;100436.28;5101952;27;45424;-66
2022/08/16 10:33:26;;;;;;;;;16.50;13.75;;;;;25.12;54.36;100445.03;5101040;27;46483;-66
2022/08/16 10:35:52;;;;;;;;;14.25;14.25;;;;;25.13;54.58;100433.13;5100885;27;45321;-67
2022/08/16 10:38:17;;;;;;;;;18.00;15.50;;;;;25.12;54.57;100436.84;5101283;27;45329;-67
2022/08/16 10:40:43;;;;;;;;;14.25;14.25;;;;;25.12;53.90;100429.50;5101176;27;45321;-67
2022/08/16 10:43:08;;;;;;;;;16.00;14.75;;;;;25.14;54.28;100435.69;5101099;27;45431;-67
2022/08/16 10:45:35;;;;;;;;;18.75;16.75;;;;;25.18;54.46;100430.78;5082548;27;45370;-67
2022/08/16 10:48:01;;;;;;;;;14.75;14.00;;;;;25.19;54.54;100428.91;5101139;27;45267;-67
2022/08/16 10:50:27;;;;;;;;;16.00;16.00;;;;;25.23;54.76;100433.06;5100707;27;45257;-67
2022/08/16 10:52:53;;;;;;;;;15.75;14.50;;;;;25.24;54.77;100423.84;5100978;27;46534;-67
2022/08/16 10:55:19;;;;;;;;;17.00;16.25;;;;;25.27;54.40;100426.31;5100919;27;45505;-67
2022/08/16 10:57:45;;;;;;;;;14.25;14.00;;;;;25.29;53.97;100427.00;5108699;27;45401;-66
2022/08/16 11:00:14;;;;;;;;;13.50;13.00;;;;;25.23;54.11;100428.47;5119296;27;45601;-66
2022/08/16 11:02:41;;;;;;;;;15.00;15.00;;;;;25.32;53.97;100441.22;5100900;27;45496;-66
2022/08/16 11:05:11;;;;;;;;;13.75;13.75;;;;;25.31;53.41;100442.25;5100330;27;45480;-66
2022/08/16 11:07:42;;;;;;;;;17.25;15.00;;;;;25.35;53.79;100439.22;5100310;27;45322;-66
2022/08/16 11:10:08;;;;;;;;;13.50;13.50;;;;;25.32;53.77;100432.16;5100679;27;45358;-66